Time;durP1;ratioP1;P1;durP2;ratioP2;P2;SDS_P1;SDS_P2;PMS_P1;PMS_P2;Temp;Humidity;BMP_temperature;BMP_pressure;BME280_temperature;BME280_humidity;BME280_pressure;Samples;Min_cycle;Max_cycle;Signal;HPM_P1;HPM_P2
2022/11/22 00:05:59;;;;;;;126.35;25.25;;;1.90;99.90;;;;;;4960272;29;20059;-72
2022/11/22 00:19:25;;;;;;;129.23;24.50;;;1.90;99.90;;;;;;5060047;28;20112;-72
2022/11/22 00:35:56;;;;;;;119.05;23.23;;;1.90;99.90;;;;;;5062759;28;20049;-72
2022/11/22 00:45:40;;;;;;;152.45;27.50;;;1.90;99.90;;;;;;5002633;28;20053;-73
2022/11/22 00:59:10;;;;;;;121.82;25.33;;;1.90;99.90;;;;;;4998562;28;20034;-72
2022/11/22 01:25:36;;;;;;;89.13;26.02;;;1.90;99.90;;;;;;5038680;28;20393;-73
2022/11/22 02:04:35;;;;;;;86.22;22.15;;;1.90;99.90;;;;;;5060793;28;20416;-72
2022/11/22 02:18:13;;;;;;;74.68;21.52;;;1.90;99.90;;;;;;5058716;28;20063;-72
2022/11/22 02:27:29;;;;;;;67.82;20.13;;;2.00;99.90;;;;;;5056776;28;20029;-72
2022/11/22 02:33:22;;;;;;;74.20;19.83;;;1.90;99.90;;;;;;5059117;28;20063;-72
2022/11/22 02:35:50;;;;;;;108.38;21.17;;;2.00;99.90;;;;;;5040094;28;20029;-72
2022/11/22 02:38:23;;;;;;;67.60;19.40;;;2.00;99.90;;;;;;5038575;28;20025;-72
2022/11/22 02:44:50;;;;;;;86.45;23.17;;;2.10;99.90;;;;;;5056981;28;20032;-72
2022/11/22 03:08:51;;;;;;;70.45;21.33;;;2.40;99.90;;;;;;5055734;28;20057;-72
2022/11/22 03:22:00;;;;;;;74.97;23.95;;;2.60;99.90;;;;;;5054450;28;20552;-72
2022/11/22 03:45:30;;;;;;;72.30;22.23;;;2.80;99.90;;;;;;5055721;28;20055;-72
2022/11/22 03:55:05;;;;;;;60.67;21.80;;;2.90;99.90;;;;;;5055362;28;20106;-72
2022/11/22 04:01:44;;;;;;;63.08;21.90;;;2.90;99.90;;;;;;5055806;28;20044;-72
2022/11/22 04:07:54;;;;;;;53.15;20.20;;;3.00;99.90;;;;;;5055754;28;20438;-72
2022/11/22 04:17:48;;;;;;;53.88;20.60;;;3.10;99.90;;;;;;5053823;28;20033;-72
2022/11/22 04:34:05;;;;;;;48.50;19.58;;;3.20;99.90;;;;;;5058549;28;20033;-72
2022/11/22 04:40:35;;;;;;;40.88;16.95;;;3.20;99.90;;;;;;5061568;28;20092;-72
2022/11/22 04:46:42;;;;;;;40.67;17.75;;;3.30;99.90;;;;;;5059314;28;20071;-72
2022/11/22 04:52:54;;;;;;;40.20;17.80;;;3.30;99.90;;;;;;5059775;28;20043;-72
2022/11/22 04:55:20;;;;;;;37.35;18.27;;;3.30;99.90;;;;;;5059128;28;20045;-73
2022/11/22 05:04:52;;;;;;;43.65;19.27;;;3.40;99.90;;;;;;5066093;28;20443;-73
2022/11/22 05:14:20;;;;;;;39.05;17.45;;;3.50;99.90;;;;;;5059165;28;20053;-72
2022/11/22 05:17:40;;;;;;;36.10;17.77;;;3.50;99.90;;;;;;5042851;28;20033;-72
2022/11/22 05:20:07;;;;;;;34.17;16.33;;;3.50;99.90;;;;;;5059782;28;20033;-72
2022/11/22 05:25:19;;;;;;;42.58;18.65;;;3.50;99.90;;;;;;5064215;28;20111;-72
2022/11/22 05:27:45;;;;;;;47.72;18.83;;;3.50;99.90;;;;;;5063666;28;20048;-72
2022/11/22 05:30:11;;;;;;;42.15;18.33;;;3.50;99.90;;;;;;5044612;28;20397;-72
2022/11/22 05:32:36;;;;;;;38.08;16.67;;;3.50;99.90;;;;;;5060652;28;20032;-72
2022/11/22 05:35:03;;;;;;;43.30;17.77;;;3.50;99.90;;;;;;5061646;28;20113;-72
2022/11/22 05:37:28;;;;;;;39.05;18.30;;;3.60;99.90;;;;;;5060771;28;20057;-73
2022/11/22 05:39:54;;;;;;;44.97;19.45;;;3.60;99.90;;;;;;5062072;28;20029;-72
2022/11/22 05:42:20;;;;;;;42.25;17.13;;;3.60;99.90;;;;;;5044639;28;20025;-73
2022/11/22 05:44:45;;;;;;;39.17;19.33;;;3.60;99.90;;;;;;5045239;28;20027;-72
2022/11/22 05:50:47;;;;;;;41.55;18.15;;;3.60;99.90;;;;;;5061659;28;20035;-72
2022/11/22 05:53:12;;;;;;;39.97;18.98;;;3.60;99.90;;;;;;5061047;28;20032;-72
2022/11/22 05:55:38;;;;;;;38.75;17.67;;;3.60;99.90;;;;;;5059878;28;20025;-72
2022/11/22 05:58:03;;;;;;;41.63;19.02;;;3.70;99.90;;;;;;5041143;28;20100;-72
2022/11/22 06:00:29;;;;;;;37.97;17.83;;;3.70;99.90;;;;;;5058633;28;20087;-72
2022/11/22 06:03:02;;;;;;;41.10;18.92;;;3.70;99.90;;;;;;5059149;28;20078;-72
2022/11/22 06:05:29;;;;;;;46.10;18.33;;;3.70;99.90;;;;;;5041386;28;20025;-72
2022/11/22 06:07:59;;;;;;;40.42;19.23;;;3.70;99.90;;;;;;5059183;28;20025;-72
2022/11/22 06:10:25;;;;;;;39.65;18.48;;;3.70;99.90;;;;;;5058915;28;20522;-72
2022/11/22 06:13:25;;;;;;;39.60;18.00;;;3.70;99.90;;;;;;5059567;28;20028;-72
2022/11/22 06:16:38;;;;;;;35.30;17.00;;;3.80;99.90;;;;;;5060243;28;20083;-72
2022/11/22 06:19:03;;;;;;;34.40;16.30;;;3.80;99.90;;;;;;5059804;28;20071;-73
2022/11/22 06:21:29;;;;;;;39.60;17.40;;;3.80;99.90;;;;;;5060689;28;20369;-73
2022/11/22 06:23:55;;;;;;;36.58;18.15;;;3.80;99.90;;;;;;5060822;28;20029;-73
2022/11/22 06:26:22;;;;;;;37.58;16.45;;;3.90;99.90;;;;;;5062875;28;20100;-73
2022/11/22 06:28:54;;;;;;;32.92;15.93;;;3.90;99.90;;;;;;5043388;28;20052;-72
2022/11/22 06:31:22;;;;;;;36.47;16.88;;;3.90;99.90;;;;;;5042823;28;20582;-72
2022/11/22 06:33:49;;;;;;;35.28;15.88;;;3.90;99.90;;;;;;5059949;28;20040;-72
2022/11/22 06:36:17;;;;;;;36.95;17.05;;;3.90;99.90;;;;;;5042886;28;20040;-72
2022/11/22 06:38:44;;;;;;;32.05;16.20;;;3.90;99.90;;;;;;5057704;28;20063;-72
2022/11/22 06:41:11;;;;;;;32.45;15.68;;;3.90;99.90;;;;;;5059011;28;20037;-72
2022/11/22 06:43:44;;;;;;;34.33;16.23;;;4.00;99.90;;;;;;5042348;28;20032;-72
2022/11/22 06:46:49;;;;;;;32.97;15.85;;;4.00;99.90;;;;;;5059460;28;20054;-72
2022/11/22 06:49:14;;;;;;;34.05;15.27;;;4.00;99.90;;;;;;5040566;28;20464;-73
2022/11/22 06:51:40;;;;;;;40.65;17.42;;;4.00;99.90;;;;;;5058267;28;20025;-72
2022/11/22 06:54:09;;;;;;;35.55;16.38;;;4.10;99.90;;;;;;5038262;28;20104;-73
2022/11/22 06:56:37;;;;;;;36.10;17.55;;;4.10;99.90;;;;;;5040004;28;20108;-72
2022/11/22 06:59:05;;;;;;;36.13;17.33;;;4.10;99.90;;;;;;5041348;28;20041;-72
2022/11/22 07:01:32;;;;;;;41.40;18.02;;;4.10;99.90;;;;;;5041690;28;20064;-76
2022/11/22 07:03:59;;;;;;;37.13;16.52;;;4.10;99.90;;;;;;5040115;28;20083;-72
2022/11/22 07:06:31;;;;;;;34.53;16.95;;;4.10;99.90;;;;;;5041710;28;20377;-72
2022/11/22 07:08:58;;;;;;;39.17;17.52;;;4.10;99.90;;;;;;5040968;28;20074;-72
2022/11/22 07:11:26;;;;;;;36.63;17.45;;;4.20;99.90;;;;;;5040147;28;20097;-72
2022/11/22 07:13:54;;;;;;;38.92;16.98;;;4.20;99.90;;;;;;5040825;28;20029;-73
2022/11/22 07:16:20;;;;;;;39.78;18.13;;;4.20;99.90;;;;;;5057034;28;20033;-72
2022/11/22 07:18:47;;;;;;;40.42;18.13;;;4.30;99.90;;;;;;5057322;28;20377;-72
2022/11/22 07:21:18;;;;;;;37.88;16.73;;;4.30;99.90;;;;;;5040701;28;20039;-72
2022/11/22 07:23:45;;;;;;;39.30;17.75;;;4.30;99.90;;;;;;5057972;28;20057;-72
2022/11/22 07:26:54;;;;;;;42.75;18.95;;;4.30;99.90;;;;;;5039975;28;20029;-72
2022/11/22 07:29:20;;;;;;;38.20;17.85;;;4.30;99.90;;;;;;5039926;28;20116;-72
2022/11/22 07:31:45;;;;;;;39.58;17.63;;;4.40;99.90;;;;;;5038706;28;20064;-72
2022/11/22 07:34:11;;;;;;;40.42;18.23;;;4.40;99.90;;;;;;5056887;28;20112;-73
2022/11/22 07:36:36;;;;;;;37.60;17.35;;;4.40;99.90;;;;;;5039326;28;20036;-72
2022/11/22 07:39:02;;;;;;;36.78;17.13;;;4.40;99.90;;;;;;5055109;28;20381;-72
2022/11/22 07:41:28;;;;;;;37.10;17.27;;;4.50;99.90;;;;;;5055111;28;20056;-72
2022/11/22 07:43:54;;;;;;;36.95;17.30;;;4.50;99.90;;;;;;5054439;28;20361;-72
2022/11/22 07:46:29;;;;;;;34.28;17.50;;;4.50;99.90;;;;;;5056495;28;20049;-72
2022/11/22 07:48:56;;;;;;;32.50;16.70;;;4.50;99.90;;;;;;5057549;28;20022;-72
2022/11/22 07:51:22;;;;;;;37.10;16.13;;;4.50;99.90;;;;;;5055844;28;20033;-73
2022/11/22 07:53:48;;;;;;;36.17;17.42;;;4.60;99.90;;;;;;5037589;28;20028;-72
2022/11/22 07:56:14;;;;;;;35.45;16.85;;;4.60;99.90;;;;;;5056393;28;20033;-72
2022/11/22 07:58:39;;;;;;;34.90;17.50;;;4.60;99.90;;;;;;5038305;28;20079;-72
2022/11/22 08:01:11;;;;;;;33.65;16.75;;;4.60;99.90;;;;;;5041843;28;20033;-72
2022/11/22 08:03:37;;;;;;;36.75;17.17;;;4.60;99.90;;;;;;5060279;28;20025;-72
2022/11/22 08:06:06;;;;;;;32.47;15.45;;;4.70;99.90;;;;;;5040445;28;20025;-72
2022/11/22 08:11:55;;;;;;;38.13;17.77;;;4.70;99.90;;;;;;5061002;28;20058;-73
2022/11/22 08:14:25;;;;;;;31.25;15.25;;;4.70;99.90;;;;;;5061287;28;20021;-72
2022/11/22 08:16:51;;;;;;;33.55;16.48;;;4.70;99.90;;;;;;5042681;28;20029;-72
2022/11/22 08:19:17;;;;;;;31.88;15.27;;;4.70;99.90;;;;;;5060712;28;20025;-72
2022/11/22 08:21:47;;;;;;;31.17;15.93;;;4.80;99.90;;;;;;5040942;28;20116;-72
2022/11/22 08:24:14;;;;;;;34.88;17.45;;;4.80;99.90;;;;;;5042249;28;20059;-72
2022/11/22 08:26:40;;;;;;;38.65;16.67;;;4.80;99.90;;;;;;5042166;28;20056;-72
2022/11/22 08:29:08;;;;;;;34.47;16.58;;;4.90;99.90;;;;;;5059148;28;20025;-72
2022/11/22 08:31:34;;;;;;;31.67;15.80;;;4.80;99.90;;;;;;5058185;28;20099;-72
2022/11/22 08:33:59;;;;;;;34.10;16.83;;;4.90;99.90;;;;;;5041845;28;20032;-72
2022/11/22 08:36:28;;;;;;;29.50;16.42;;;4.90;99.90;;;;;;5041722;28;20021;-72
2022/11/22 08:38:54;;;;;;;31.77;16.67;;;4.90;99.90;;;;;;5059761;28;20029;-72
2022/11/22 08:41:20;;;;;;;38.63;16.63;;;4.80;99.90;;;;;;5040712;28;20048;-72
2022/11/22 08:43:49;;;;;;;36.95;16.60;;;4.90;99.90;;;;;;5041985;28;20113;-72
2022/11/22 08:46:16;;;;;;;32.58;16.38;;;4.90;99.90;;;;;;5040077;28;20493;-72
2022/11/22 08:48:41;;;;;;;32.90;15.20;;;4.90;99.90;;;;;;5058402;28;20495;-72
2022/11/22 08:51:09;;;;;;;29.52;15.82;;;4.90;99.90;;;;;;5041120;28;20059;-72
2022/11/22 08:53:40;;;;;;;34.90;16.33;;;4.90;99.90;;;;;;5039997;28;20033;-72
2022/11/22 08:56:10;;;;;;;34.13;16.45;;;4.90;99.90;;;;;;5057407;28;20033;-73
2022/11/22 08:58:36;;;;;;;27.60;14.73;;;4.90;99.90;;;;;;5038950;28;20021;-72
2022/11/22 09:01:11;;;;;;;32.75;16.15;;;5.00;99.90;;;;;;5039532;28;20469;-72
2022/11/22 09:03:38;;;;;;;32.22;15.35;;;5.00;99.90;;;;;;5057301;28;20017;-73
2022/11/22 09:06:07;;;;;;;29.17;14.70;;;5.00;99.90;;;;;;5040186;28;20055;-72
2022/11/22 09:08:34;;;;;;;27.75;15.13;;;5.00;99.90;;;;;;5059765;28;20059;-73
2022/11/22 09:11:00;;;;;;;32.15;16.73;;;4.90;99.90;;;;;;5061778;28;20037;-73
2022/11/22 09:13:27;;;;;;;33.13;16.75;;;5.00;99.90;;;;;;5046730;28;20025;-73
2022/11/22 09:15:53;;;;;;;35.00;17.70;;;5.00;99.90;;;;;;5043744;28;20089;-73
2022/11/22 09:18:19;;;;;;;39.33;18.70;;;5.00;99.90;;;;;;5061245;28;20021;-73
2022/11/22 09:20:45;;;;;;;31.85;17.38;;;5.00;99.90;;;;;;5046406;28;20040;-72
2022/11/22 09:23:10;;;;;;;40.38;18.73;;;4.90;99.90;;;;;;5047533;28;20025;-72
2022/11/22 09:25:36;;;;;;;32.85;16.95;;;4.80;99.90;;;;;;5045593;28;20075;-73
2022/11/22 09:28:02;;;;;;;35.70;17.98;;;4.80;99.90;;;;;;5060698;28;20029;-73
2022/11/22 09:30:28;;;;;;;35.60;18.90;;;4.70;99.90;;;;;;5061170;28;20036;-72
2022/11/22 09:32:54;;;;;;;37.72;18.65;;;4.70;99.90;;;;;;5043599;28;20029;-73
2022/11/22 09:35:20;;;;;;;37.53;19.05;;;4.70;99.90;;;;;;5042914;28;20029;-72
2022/11/22 09:37:46;;;;;;;39.58;18.35;;;4.70;99.90;;;;;;5060613;28;20032;-72
2022/11/22 09:40:14;;;;;;;40.70;19.70;;;4.60;99.90;;;;;;5042101;28;20033;-72
2022/11/22 09:42:39;;;;;;;37.33;19.08;;;4.60;99.90;;;;;;5059712;28;20031;-72
2022/11/22 09:45:14;;;;;;;40.13;19.92;;;4.70;99.90;;;;;;5041351;28;20017;-72
2022/11/22 09:47:51;;;;;;;37.08;18.15;;;4.70;99.90;;;;;;5041433;28;20040;-72
2022/11/22 09:50:51;;;;;;;40.92;19.77;;;4.70;99.90;;;;;;5059065;28;20057;-73
2022/11/22 09:53:25;;;;;;;38.88;17.95;;;4.70;99.90;;;;;;5002496;28;20033;-72
2022/11/22 09:55:54;;;;;;;38.13;17.90;;;4.80;99.90;;;;;;5040882;28;20048;-72
2022/11/22 09:58:29;;;;;;;36.97;17.55;;;4.70;99.90;;;;;;5040006;28;20025;-72
2022/11/22 10:01:02;;;;;;;32.55;17.63;;;4.70;99.90;;;;;;5039860;28;20393;-72
2022/11/22 10:03:50;;;;;;;35.70;17.83;;;4.70;99.90;;;;;;5057066;28;20098;-72
2022/11/22 10:06:25;;;;;;;30.00;17.05;;;4.70;99.90;;;;;;5040446;28;20032;-72
2022/11/22 10:12:26;;;;;;;34.75;18.58;;;4.80;99.90;;;;;;4998541;28;20121;-73
2022/11/22 10:18:56;;;;;;;32.35;18.02;;;4.90;99.90;;;;;;4969314;28;20427;-73
2022/11/22 10:21:22;;;;;;;41.22;18.95;;;4.90;99.90;;;;;;5038403;28;20380;-72
2022/11/22 10:23:47;;;;;;;41.38;20.83;;;4.90;99.90;;;;;;5037498;28;20025;-73
2022/11/22 10:26:19;;;;;;;36.13;19.25;;;4.90;99.90;;;;;;5039826;28;20025;-73
2022/11/22 10:29:15;;;;;;;44.20;19.67;;;4.90;99.90;;;;;;5040131;28;20051;-72
2022/11/22 10:31:56;;;;;;;35.83;19.10;;;5.00;99.90;;;;;;5057041;28;20024;-73
2022/11/22 10:34:42;;;;;;;40.38;17.58;;;5.00;99.90;;;;;;5039371;28;20025;-72
2022/11/22 10:37:10;;;;;;;41.38;18.67;;;5.00;99.90;;;;;;5038721;28;20032;-73
2022/11/22 10:40:00;;;;;;;46.95;19.50;;;5.00;99.90;;;;;;5039568;28;20097;-72
2022/11/22 10:43:08;;;;;;;39.13;18.77;;;5.10;99.90;;;;;;5057566;28;20085;-72
2022/11/22 10:46:00;;;;;;;37.00;20.05;;;5.10;99.90;;;;;;5056942;28;20033;-73
2022/11/22 10:49:04;;;;;;;40.78;19.33;;;5.10;99.90;;;;;;5056604;28;20033;-72
2022/11/22 10:51:44;;;;;;;34.88;19.95;;;5.20;99.90;;;;;;5056593;28;20461;-72
2022/11/22 10:54:21;;;;;;;32.58;18.05;;;5.10;99.90;;;;;;5056694;28;20025;-72
2022/11/22 10:56:52;;;;;;;35.55;18.98;;;5.10;99.90;;;;;;5056737;28;20017;-73
2022/11/22 10:59:24;;;;;;;35.13;19.38;;;5.10;99.90;;;;;;5040349;28;20028;-72
2022/11/22 11:01:59;;;;;;;38.72;21.00;;;5.10;99.90;;;;;;5059052;28;20100;-72
2022/11/22 11:04:31;;;;;;;38.35;19.77;;;5.10;99.90;;;;;;5060073;28;20369;-73
2022/11/22 11:06:59;;;;;;;42.75;21.40;;;5.10;99.90;;;;;;5041928;28;20024;-72
2022/11/22 11:09:34;;;;;;;36.95;21.30;;;5.20;99.90;;;;;;5059455;28;20057;-72
2022/11/22 11:12:04;;;;;;;39.92;21.73;;;5.20;99.90;;;;;;5058366;28;20025;-73
2022/11/22 11:14:33;;;;;;;34.90;20.15;;;5.20;99.90;;;;;;5059908;28;20101;-72
2022/11/22 11:17:00;;;;;;;43.08;21.30;;;5.20;99.90;;;;;;5059171;28;20162;-72
2022/11/22 11:19:30;;;;;;;39.20;20.40;;;5.20;99.90;;;;;;5041720;28;20083;-72
2022/11/22 11:22:08;;;;;;;41.17;20.52;;;5.20;99.90;;;;;;5059154;28;20022;-72
2022/11/22 11:24:45;;;;;;;35.15;19.52;;;5.20;99.90;;;;;;5039428;28;20027;-72
2022/11/22 11:27:12;;;;;;;35.92;20.40;;;5.20;99.90;;;;;;5058888;28;20029;-72
2022/11/22 11:29:45;;;;;;;39.33;21.20;;;5.30;99.90;;;;;;5039964;28;20061;-72
2022/11/22 11:32:18;;;;;;;37.10;20.52;;;5.20;99.90;;;;;;5036942;28;20419;-72
2022/11/22 11:38:26;;;;;;;38.33;20.88;;;5.20;99.90;;;;;;5059759;28;20024;-72
2022/11/22 11:40:52;;;;;;;34.10;20.05;;;5.20;99.90;;;;;;5061885;28;20029;-72
2022/11/22 11:43:20;;;;;;;45.85;21.10;;;5.30;99.90;;;;;;5043456;28;20028;-72
2022/11/22 11:45:46;;;;;;;36.92;19.90;;;5.30;99.90;;;;;;5061556;28;20041;-73
2022/11/22 11:48:56;;;;;;;34.67;19.33;;;5.30;99.90;;;;;;5058151;28;20392;-72
2022/11/22 11:54:38;;;;;;;37.90;19.10;;;5.30;99.90;;;;;;4977789;28;20053;-72
2022/11/22 11:57:06;;;;;;;32.72;19.70;;;5.30;99.90;;;;;;5059748;28;20033;-73
2022/11/22 11:59:37;;;;;;;38.75;19.02;;;5.40;99.90;;;;;;5062459;28;20131;-72
2022/11/22 12:02:12;;;;;;;33.42;17.73;;;5.50;99.90;;;;;;5064346;28;20025;-72
2022/11/22 12:18:35;;;;;;;37.30;19.98;;;5.50;99.90;;;;;;4938567;29;20485;-72
2022/11/22 12:24:39;;;;;;;36.22;20.15;;;5.50;99.90;;;;;;4938367;29;20579;-72
2022/11/22 12:27:08;;;;;;;41.13;21.42;;;5.50;99.90;;;;;;4938653;29;20032;-73
2022/11/22 12:29:38;;;;;;;36.13;20.42;;;5.40;99.90;;;;;;4922002;29;20043;-72
2022/11/22 12:32:11;;;;;;;45.75;23.05;;;5.50;99.90;;;;;;4923477;29;20035;-72
2022/11/22 12:34:43;;;;;;;47.08;25.20;;;5.50;99.90;;;;;;4924718;29;20035;-73
2022/11/22 12:37:26;;;;;;;101.57;42.70;;;5.60;99.90;;;;;;4923951;29;20538;-72
2022/11/22 12:39:55;;;;;;;41.58;23.90;;;5.50;99.90;;;;;;4937987;29;20036;-73
2022/11/22 12:45:37;;;;;;;36.15;21.52;;;5.50;99.90;;;;;;4979267;28;20058;-73
2022/11/22 12:48:08;;;;;;;37.40;21.00;;;5.50;99.90;;;;;;4998013;28;20116;-73
2022/11/22 12:50:45;;;;;;;35.20;21.10;;;5.50;99.90;;;;;;5046950;28;20124;-73
2022/11/22 12:56:45;;;;;;;48.70;21.88;;;5.40;99.90;;;;;;5066272;28;20075;-73
2022/11/22 12:59:10;;;;;;;36.35;21.20;;;5.40;99.90;;;;;;5061991;28;20021;-73
2022/11/22 13:01:36;;;;;;;41.60;22.77;;;5.50;99.90;;;;;;5042151;28;20039;-73
2022/11/22 13:04:10;;;;;;;34.67;20.48;;;5.50;99.90;;;;;;5042315;28;20029;-73
2022/11/22 13:10:33;;;;;;;33.55;18.42;;;5.40;99.90;;;;;;5060092;28;20027;-73
2022/11/22 13:16:33;;;;;;;31.45;16.83;;;5.40;99.90;;;;;;4964206;28;20052;-73
2022/11/22 13:29:51;;;;;;;29.27;16.20;;;5.50;99.90;;;;;;4881485;29;20035;-73
2022/11/22 13:32:22;;;;;;;31.60;15.75;;;5.50;99.90;;;;;;4888572;29;20048;-73
2022/11/22 13:38:57;;;;;;;30.70;15.73;;;5.50;99.90;;;;;;4961633;29;20095;-74
2022/11/22 13:44:56;;;;;;;29.13;15.65;;;5.40;99.90;;;;;;4961142;29;20058;-73
2022/11/22 13:47:21;;;;;;;29.77;17.25;;;5.40;99.90;;;;;;4943425;29;20066;-73
2022/11/22 13:50:31;;;;;;;31.55;16.98;;;5.30;99.90;;;;;;4997011;28;20041;-73
2022/11/22 14:00:15;;;;;;;35.65;21.20;;;5.30;99.90;;;;;;4998367;28;20025;-73
2022/11/22 14:07:06;;;;;;;39.03;22.95;;;5.40;99.90;;;;;;4996577;28;20053;-73
2022/11/22 14:10:10;;;;;;;39.20;24.52;;;5.30;99.90;;;;;;4982434;28;20027;-73
2022/11/22 14:26:40;;;;;;;41.90;24.30;;;5.20;99.90;;;;;;4937649;28;20523;-73
2022/11/22 14:32:45;;;;;;;44.53;26.00;;;5.20;99.90;;;;;;4940422;29;20150;-74
2022/11/22 14:35:19;;;;;;;42.40;26.75;;;5.20;99.90;;;;;;4921144;29;20038;-73
2022/11/22 14:38:04;;;;;;;40.33;24.98;;;5.20;99.90;;;;;;4939427;29;20047;-73
2022/11/22 14:40:31;;;;;;;51.97;27.20;;;5.10;99.90;;;;;;4924942;29;20040;-73
2022/11/22 14:43:00;;;;;;;41.13;24.63;;;5.10;99.90;;;;;;4921732;29;20039;-72
2022/11/22 14:45:36;;;;;;;39.53;22.88;;;5.10;99.90;;;;;;4933221;28;20038;-73
2022/11/22 14:48:19;;;;;;;39.67;24.48;;;5.10;99.90;;;;;;4978881;28;20126;-73
2022/11/22 14:50:58;;;;;;;41.75;25.52;;;5.10;99.90;;;;;;4995425;28;20130;-73
2022/11/22 14:53:39;;;;;;;47.88;25.77;;;5.10;99.90;;;;;;5018916;28;20457;-72
2022/11/22 14:56:07;;;;;;;34.35;22.42;;;5.10;99.90;;;;;;5038022;28;20123;-72
2022/11/22 14:58:38;;;;;;;43.15;24.65;;;5.10;99.90;;;;;;5038037;28;20465;-73
2022/11/22 15:01:22;;;;;;;44.97;24.98;;;5.10;99.90;;;;;;5037904;28;20033;-73
2022/11/22 15:04:00;;;;;;;40.85;24.77;;;5.10;99.90;;;;;;5039576;28;20021;-72
2022/11/22 15:07:10;;;;;;;42.10;23.50;;;5.10;99.90;;;;;;5057341;28;20028;-73
2022/11/22 15:09:50;;;;;;;44.15;24.08;;;5.10;99.90;;;;;;4974599;28;20035;-73
2022/11/22 15:15:37;;;;;;;41.03;23.30;;;5.10;99.90;;;;;;5054751;28;20028;-73
2022/11/22 15:18:44;;;;;;;39.55;23.05;;;5.10;99.90;;;;;;5038765;28;20060;-73
2022/11/22 15:21:26;;;;;;;38.40;22.67;;;5.10;99.90;;;;;;5056104;28;20055;-73
2022/11/22 15:23:55;;;;;;;39.65;22.73;;;5.10;99.90;;;;;;5037778;28;20487;-73
2022/11/22 15:26:23;;;;;;;46.22;24.13;;;5.10;99.90;;;;;;5056069;28;20100;-73
2022/11/22 15:28:53;;;;;;;42.17;24.73;;;5.10;99.90;;;;;;5038286;28;20025;-72
2022/11/22 15:31:46;;;;;;;39.15;23.85;;;5.00;99.90;;;;;;5037390;28;20107;-72
2022/11/22 15:34:19;;;;;;;38.15;22.55;;;5.00;99.90;;;;;;5037366;28;20093;-73
2022/11/22 15:36:48;;;;;;;37.67;22.83;;;5.00;99.90;;;;;;5054577;28;20037;-73
2022/11/22 15:40:08;;;;;;;34.55;22.08;;;5.00;99.90;;;;;;5054706;28;20025;-73
2022/11/22 15:42:33;;;;;;;39.45;22.98;;;6.30;99.90;;;;;;5055758;28;20491;-72
2022/11/22 15:44:59;;;;;;;37.50;21.65;;;5.00;99.90;;;;;;5054707;28;20037;-71
2022/11/22 15:47:25;;;;;;;37.03;22.52;;;5.00;99.90;;;;;;5054443;28;20077;-73
2022/11/22 15:49:51;;;;;;;38.95;24.45;;;5.00;99.90;;;;;;5040010;28;20461;-73
2022/11/22 15:52:28;;;;;;;37.15;22.42;;;5.00;99.90;;;;;;5055838;28;20021;-73
2022/11/22 15:54:56;;;;;;;42.15;22.95;;;5.00;99.90;;;;;;5055825;28;20025;-73
2022/11/22 15:57:30;;;;;;;36.00;22.55;;;5.10;99.90;;;;;;5054845;28;20036;-73
2022/11/22 15:59:57;;;;;;;38.28;22.40;;;5.10;99.90;;;;;;5055443;28;20033;-72
2022/11/22 16:02:28;;;;;;;34.67;21.85;;;5.10;99.90;;;;;;5056322;28;20025;-73
2022/11/22 16:04:59;;;;;;;42.90;22.42;;;5.10;99.90;;;;;;5055434;28;20039;-73
2022/11/22 16:07:35;;;;;;;34.55;20.77;;;5.10;99.90;;;;;;5037144;28;20032;-72
2022/11/22 16:10:20;;;;;;;34.83;21.98;;;5.10;99.90;;;;;;5036873;28;20025;-72
2022/11/22 16:12:48;;;;;;;36.58;22.33;;;5.10;99.90;;;;;;5054222;28;20025;-72
2022/11/22 16:15:36;;;;;;;34.47;22.05;;;5.10;99.90;;;;;;5036360;28;20025;-72
2022/11/22 16:18:25;;;;;;;35.17;23.35;;;5.10;99.90;;;;;;5054310;28;20023;-72
2022/11/22 16:21:21;;;;;;;36.60;21.48;;;5.10;99.90;;;;;;5037492;28;20033;-73
2022/11/22 16:24:05;;;;;;;37.65;22.17;;;5.10;99.90;;;;;;5040475;28;20486;-72
2022/11/22 16:26:31;;;;;;;33.63;21.85;;;5.10;99.90;;;;;;5059281;28;20100;-72
2022/11/22 16:29:16;;;;;;;33.65;20.02;;;5.10;99.90;;;;;;5039839;28;20087;-72
2022/11/22 16:31:41;;;;;;;34.65;20.17;;;5.10;99.90;;;;;;5057339;28;20029;-72
2022/11/22 16:34:14;;;;;;;31.35;18.98;;;5.10;99.90;;;;;;5057860;28;20099;-72
2022/11/22 16:36:41;;;;;;;33.75;19.90;;;5.10;99.90;;;;;;5058192;28;20022;-72
2022/11/22 16:39:07;;;;;;;35.85;19.67;;;5.10;99.90;;;;;;5024695;28;20037;-72
2022/11/22 16:41:34;;;;;;;31.23;19.35;;;5.10;99.90;;;;;;5037623;28;20397;-71
2022/11/22 16:44:11;;;;;;;31.50;19.35;;;5.10;99.90;;;;;;5020525;28;20458;-71
2022/11/22 16:46:39;;;;;;;34.60;19.23;;;5.10;99.90;;;;;;5037652;28;20477;-71
2022/11/22 16:49:23;;;;;;;29.15;18.27;;;5.10;99.90;;;;;;5037170;28;20036;-72
2022/11/22 16:51:49;;;;;;;30.95;18.73;;;5.10;99.90;;;;;;5021464;28;20029;-72
2022/11/22 16:54:19;;;;;;;28.92;18.48;;;5.10;99.90;;;;;;5026282;28;20025;-75
2022/11/22 16:56:45;;;;;;;34.47;23.70;;;5.10;99.90;;;;;;5043220;28;20025;-72
2022/11/22 16:59:12;;;;;;;35.20;25.00;;;5.10;99.90;;;;;;5027045;28;20022;-76
2022/11/22 17:01:40;;;;;;;33.33;20.73;;;5.10;99.90;;;;;;5041770;28;20068;-72
2022/11/22 17:04:08;;;;;;;32.08;19.45;;;5.10;99.90;;;;;;5041013;28;20034;-74
2022/11/22 17:06:34;;;;;;;32.22;19.70;;;5.10;99.90;;;;;;5043243;28;20026;-73
2022/11/22 17:09:00;;;;;;;34.42;19.10;;;5.00;99.90;;;;;;5025379;28;20030;-72
2022/11/22 17:11:31;;;;;;;35.65;19.95;;;5.00;99.90;;;;;;5046640;28;20029;-73
2022/11/22 17:13:58;;;;;;;31.58;18.70;;;5.00;99.90;;;;;;5047078;28;20025;-72
2022/11/22 17:16:24;;;;;;;35.25;19.48;;;4.90;99.90;;;;;;5047261;28;20056;-72
2022/11/22 17:18:51;;;;;;;34.38;20.05;;;4.90;99.90;;;;;;5047356;28;20568;-72
2022/11/22 17:21:25;;;;;;;32.80;19.90;;;4.90;99.90;;;;;;5042067;28;20064;-72
2022/11/22 17:23:56;;;;;;;33.28;19.63;;;4.90;99.90;;;;;;5023848;28;20028;-72
2022/11/22 17:26:22;;;;;;;33.30;19.98;;;4.90;99.90;;;;;;5024599;28;20048;-71
2022/11/22 17:28:48;;;;;;;35.60;19.23;;;4.90;99.90;;;;;;5023789;28;20108;-72
2022/11/22 17:31:16;;;;;;;35.47;18.98;;;4.80;99.90;;;;;;5024621;28;20079;-74
2022/11/22 17:33:43;;;;;;;45.08;25.75;;;4.80;99.90;;;;;;5023734;28;20034;-72
2022/11/22 17:36:33;;;;;;;33.30;18.50;;;4.90;99.90;;;;;;5022694;28;20461;-72
2022/11/22 17:39:05;;;;;;;34.28;18.95;;;4.80;99.90;;;;;;5023959;28;20022;-73
2022/11/22 17:41:32;;;;;;;33.35;19.52;;;4.80;99.90;;;;;;5020433;28;20061;-69
2022/11/22 17:43:59;;;;;;;38.25;20.80;;;4.80;99.90;;;;;;5038420;28;20025;-70
2022/11/22 17:46:25;;;;;;;36.33;19.42;;;4.80;99.90;;;;;;5018765;28;20048;-70
2022/11/22 17:48:53;;;;;;;32.20;19.80;;;4.80;99.90;;;;;;5036884;28;20026;-70
2022/11/22 17:51:20;;;;;;;34.92;20.17;;;4.80;99.90;;;;;;5037403;28;20033;-69
2022/11/22 17:53:46;;;;;;;33.38;19.92;;;4.80;99.90;;;;;;5021205;28;20049;-71
2022/11/22 17:56:12;;;;;;;31.85;18.70;;;4.80;99.90;;;;;;5023549;28;20458;-69
2022/11/22 17:58:40;;;;;;;29.25;17.92;;;4.80;99.90;;;;;;5041198;28;20031;-69
2022/11/22 18:01:09;;;;;;;32.80;19.45;;;4.80;99.90;;;;;;5022080;28;20033;-70
2022/11/22 18:03:36;;;;;;;35.63;20.08;;;4.80;99.90;;;;;;5020512;28;20137;-72
2022/11/22 18:06:02;;;;;;;35.30;20.30;;;4.80;99.90;;;;;;5019514;28;20037;-67
2022/11/22 18:08:29;;;;;;;39.75;20.77;;;4.80;99.90;;;;;;5018166;28;20116;-58
2022/11/22 18:10:58;;;;;;;31.00;18.20;;;4.80;99.90;;;;;;5034843;28;20035;-59
2022/11/22 18:13:25;;;;;;;35.17;19.95;;;4.80;99.90;;;;;;5038252;28;20079;-70
2022/11/22 18:15:56;;;;;;;37.33;20.35;;;4.80;99.90;;;;;;5019995;28;20036;-68
2022/11/22 18:18:23;;;;;;;34.92;19.02;;;4.90;99.90;;;;;;5037403;28;20048;-70
2022/11/22 18:20:50;;;;;;;32.80;18.80;;;4.90;99.90;;;;;;5019360;28;20038;-69
2022/11/22 18:23:17;;;;;;;32.50;18.07;;;4.90;99.90;;;;;;5036657;28;20382;-68
2022/11/22 18:25:43;;;;;;;35.55;20.75;;;4.90;99.90;;;;;;5018041;28;20026;-68
2022/11/22 18:28:09;;;;;;;33.10;19.10;;;4.90;99.90;;;;;;5035882;28;20029;-69
2022/11/22 18:30:36;;;;;;;33.35;18.50;;;4.90;99.90;;;;;;5037008;28;20033;-70
2022/11/22 18:33:03;;;;;;;40.72;21.27;;;4.90;99.90;;;;;;5018588;28;20029;-73
2022/11/22 18:35:30;;;;;;;33.72;19.20;;;4.90;99.90;;;;;;5035951;28;20032;-69
2022/11/22 18:37:57;;;;;;;37.63;20.02;;;4.90;99.90;;;;;;5035401;28;20056;-69
2022/11/22 18:40:23;;;;;;;34.70;19.10;;;4.90;99.90;;;;;;5017066;28;20029;-69
2022/11/22 18:42:50;;;;;;;34.42;20.08;;;4.90;99.90;;;;;;5016703;28;20112;-67
2022/11/22 18:45:21;;;;;;;33.17;19.08;;;4.90;99.90;;;;;;5015869;28;20120;-67
2022/11/22 18:47:47;;;;;;;34.80;19.38;;;4.90;99.90;;;;;;5033862;28;20041;-68
2022/11/22 18:50:14;;;;;;;34.13;20.05;;;4.90;99.90;;;;;;5034642;28;20030;-69
2022/11/22 18:52:41;;;;;;;35.05;19.77;;;4.90;99.90;;;;;;5017205;28;20026;-68